Time;durP1;ratioP1;P1;durP2;ratioP2;P2;SDS_P1;SDS_P2;PMS_P1;PMS_P2;Temp;Humidity;BMP_temperature;BMP_pressure;BME280_temperature;BME280_humidity;BME280_pressure;Samples;Min_cycle;Max_cycle;Signal;HPM_P1;HPM_P2
2021/05/19 00:01:20;;;;;;;19.77;9.55;;;;;;;;;;4435672;32;20273;-71
2021/05/19 00:03:45;;;;;;;21.55;9.82;;;;;;;;;;4435425;32;20684;-71
2021/05/19 00:06:12;;;;;;;24.25;10.20;;;;;;;;;;4422648;32;20215;-71
2021/05/19 00:08:37;;;;;;;25.58;10.50;;;;;;;;;;4434755;32;20329;-71
2021/05/19 00:11:02;;;;;;;29.50;11.05;;;;;;;;;;4435650;32;20156;-70
2021/05/19 00:13:30;;;;;;;22.33;11.18;;;;;;;;;;4435805;32;20133;-71
2021/05/19 00:15:55;;;;;;;24.30;11.40;;;;;;;;;;4434892;32;20142;-69
2021/05/19 00:18:20;;;;;;;23.38;11.70;;;;;;;;;;4433697;32;20160;-70
2021/05/19 00:20:45;;;;;;;30.58;12.18;;;;;;;;;;4421350;32;20192;-71
2021/05/19 00:23:11;;;;;;;32.05;12.88;;;;;;;;;;4433545;32;20248;-70
2021/05/19 00:25:36;;;;;;;28.60;12.73;;;;;;;;;;4420986;32;20253;-69
2021/05/19 00:28:01;;;;;;;34.08;13.43;;;;;;;;;;4435323;32;20164;-70
2021/05/19 00:30:26;;;;;;;26.52;13.27;;;;;;;;;;4435301;32;20176;-70
2021/05/19 00:32:52;;;;;;;28.42;13.15;;;;;;;;;;4433035;32;20261;-70
2021/05/19 00:35:17;;;;;;;29.48;12.90;;;;;;;;;;4421073;32;20165;-70
2021/05/19 00:37:42;;;;;;;30.35;12.60;;;;;;;;;;4433663;32;20244;-71
2021/05/19 00:40:08;;;;;;;33.38;12.85;;;;;;;;;;4421407;32;20277;-70
2021/05/19 00:42:33;;;;;;;29.17;13.30;;;;;;;;;;4418694;32;20214;-70
2021/05/19 00:45:03;;;;;;;22.37;12.48;;;;;;;;;;4419235;32;20158;-69
2021/05/19 00:47:36;;;;;;;27.48;11.50;;;;;;;;;;4434463;32;20183;-69
2021/05/19 00:50:01;;;;;;;29.75;12.48;;;;;;;;;;4419046;32;20207;-70
2021/05/19 00:52:26;;;;;;;26.77;11.35;;;;;;;;;;4434350;32;20518;-70
2021/05/19 00:54:52;;;;;;;28.50;11.82;;;;;;;;;;4420131;32;20193;-70
2021/05/19 00:57:17;;;;;;;29.05;11.52;;;;;;;;;;4434416;32;20145;-70
2021/05/19 00:59:43;;;;;;;24.87;11.00;;;;;;;;;;4419768;32;20157;-70
2021/05/19 01:02:08;;;;;;;23.30;10.30;;;;;;;;;;4421296;32;20555;-70
2021/05/19 01:04:33;;;;;;;22.13;9.35;;;;;;;;;;4418756;32;20312;-70
2021/05/19 01:07:02;;;;;;;29.05;10.93;;;;;;;;;;4433512;32;20491;-70
2021/05/19 01:09:36;;;;;;;26.98;10.15;;;;;;;;;;4433084;32;20137;-71
2021/05/19 01:12:02;;;;;;;21.50;9.52;;;;;;;;;;4433045;32;20633;-70
2021/05/19 01:14:28;;;;;;;21.08;10.23;;;;;;;;;;4434706;32;20137;-70
2021/05/19 01:16:53;;;;;;;27.55;11.80;;;;;;;;;;4435500;32;20230;-71
2021/05/19 01:19:19;;;;;;;25.35;11.12;;;;;;;;;;4435569;32;20545;-71
2021/05/19 01:21:46;;;;;;;22.37;10.95;;;;;;;;;;4433260;32;20153;-70
2021/05/19 01:24:11;;;;;;;28.75;11.70;;;;;;;;;;4434694;32;20484;-72
2021/05/19 01:26:36;;;;;;;20.50;11.50;;;;;;;;;;4435167;32;20133;-71
2021/05/19 01:29:02;;;;;;;27.90;12.93;;;;;;;;;;4434424;32;20469;-71
2021/05/19 01:31:28;;;;;;;33.13;12.32;;;;;;;;;;4434554;32;20209;-71
2021/05/19 01:33:53;;;;;;;27.62;13.13;;;;;;;;;;4420961;32;20165;-70
2021/05/19 01:36:19;;;;;;;26.42;12.68;;;;;;;;;;4432411;32;20182;-70
2021/05/19 01:38:45;;;;;;;24.48;11.77;;;;;;;;;;4433319;32;20396;-71
2021/05/19 01:41:11;;;;;;;29.27;11.93;;;;;;;;;;4434777;32;20450;-70
2021/05/19 01:43:36;;;;;;;32.03;11.88;;;;;;;;;;4434231;32;20157;-71
2021/05/19 01:46:03;;;;;;;24.83;11.50;;;;;;;;;;4419048;32;20172;-70
2021/05/19 01:48:30;;;;;;;25.65;11.23;;;;;;;;;;4418987;32;20517;-71
2021/05/19 01:50:55;;;;;;;29.60;11.18;;;;;;;;;;4420928;32;20219;-70
2021/05/19 01:53:22;;;;;;;30.33;11.90;;;;;;;;;;4434011;32;20301;-70
2021/05/19 01:55:47;;;;;;;27.80;10.50;;;;;;;;;;4432667;32;20133;-71
2021/05/19 01:58:12;;;;;;;33.47;11.55;;;;;;;;;;4418167;32;20200;-70
2021/05/19 02:00:38;;;;;;;28.73;11.35;;;;;;;;;;4434450;32;20134;-71
2021/05/19 02:03:04;;;;;;;27.45;11.35;;;;;;;;;;4434846;32;20145;-70
2021/05/19 02:05:30;;;;;;;27.75;11.40;;;;;;;;;;4421344;32;20268;-70
2021/05/19 02:07:55;;;;;;;28.83;12.35;;;;;;;;;;4435183;32;20156;-71
2021/05/19 02:10:21;;;;;;;25.77;10.85;;;;;;;;;;4433941;32;20150;-71
2021/05/19 02:12:47;;;;;;;35.22;10.95;;;;;;;;;;4420016;32;20544;-71
2021/05/19 02:15:13;;;;;;;39.97;11.90;;;;;;;;;;4420970;32;20169;-70
2021/05/19 02:17:38;;;;;;;31.90;12.25;;;;;;;;;;4418627;32;20570;-71
2021/05/19 02:20:07;;;;;;;26.37;12.10;;;;;;;;;;4420288;32;20165;-71
2021/05/19 02:22:32;;;;;;;33.13;13.60;;;;;;;;;;4419656;32;20169;-71
2021/05/19 02:24:58;;;;;;;36.38;14.35;;;;;;;;;;4417721;32;20161;-71
2021/05/19 02:27:23;;;;;;;33.92;13.75;;;;;;;;;;4417691;32;20181;-70
2021/05/19 02:29:52;;;;;;;31.87;13.82;;;;;;;;;;4432179;32;20157;-71
2021/05/19 02:32:17;;;;;;;35.53;14.52;;;;;;;;;;4417293;32;20161;-70
2021/05/19 02:34:42;;;;;;;34.17;15.18;;;;;;;;;;4432214;32;20560;-71
2021/05/19 02:37:07;;;;;;;32.05;15.60;;;;;;;;;;4419802;32;20228;-71
2021/05/19 02:39:34;;;;;;;37.03;16.50;;;;;;;;;;4418725;32;20558;-71
2021/05/19 02:41:59;;;;;;;38.13;16.33;;;;;;;;;;4431727;32;20149;-71
2021/05/19 02:44:24;;;;;;;31.37;15.83;;;;;;;;;;4419125;32;20237;-71
2021/05/19 02:46:49;;;;;;;35.47;17.20;;;;;;;;;;4432432;32;20407;-70
2021/05/19 02:49:14;;;;;;;39.38;16.80;;;;;;;;;;4432091;32;20538;-70
2021/05/19 02:51:40;;;;;;;30.47;17.57;;;;;;;;;;4433251;32;20236;-72
2021/05/19 02:54:05;;;;;;;36.42;17.75;;;;;;;;;;4418291;32;20190;-70
2021/05/19 02:56:31;;;;;;;40.92;17.00;;;;;;;;;;4431753;32;20160;-71
2021/05/19 02:58:56;;;;;;;33.77;18.93;;;;;;;;;;4418018;32;20174;-71
2021/05/19 03:01:21;;;;;;;32.65;17.70;;;;;;;;;;4417982;32;20596;-70
2021/05/19 03:03:46;;;;;;;32.83;17.87;;;;;;;;;;4433523;32;20232;-71
2021/05/19 03:06:11;;;;;;;39.88;19.65;;;;;;;;;;4419979;32;20622;-71
2021/05/19 03:08:37;;;;;;;36.20;19.80;;;;;;;;;;4436994;32;20137;-71
2021/05/19 03:11:03;;;;;;;36.23;18.33;;;;;;;;;;4436925;32;20229;-71
2021/05/19 03:13:28;;;;;;;36.73;18.23;;;;;;;;;;4420931;32;20454;-71
2021/05/19 03:15:53;;;;;;;38.83;18.83;;;;;;;;;;4422620;32;20222;-71
2021/05/19 03:18:18;;;;;;;37.67;19.27;;;;;;;;;;4436918;32;20288;-71
2021/05/19 03:20:43;;;;;;;42.37;20.13;;;;;;;;;;4434761;32;20125;-71
2021/05/19 03:23:08;;;;;;;37.03;19.47;;;;;;;;;;4420565;32;20165;-71
2021/05/19 03:25:34;;;;;;;41.47;20.53;;;;;;;;;;4436276;32;20254;-71
2021/05/19 03:27:59;;;;;;;36.20;20.20;;;;;;;;;;4421510;32;20275;-71
2021/05/19 03:30:24;;;;;;;39.37;22.10;;;;;;;;;;4421116;32;20212;-71
2021/05/19 03:32:49;;;;;;;35.83;19.83;;;;;;;;;;4420683;32;20177;-70
2021/05/19 03:35:14;;;;;;;38.03;18.17;;;;;;;;;;4436433;32;20169;-69
2021/05/19 03:37:40;;;;;;;39.83;18.90;;;;;;;;;;4436110;32;20167;-71
2021/05/19 03:40:07;;;;;;;37.53;18.50;;;;;;;;;;4435901;32;20302;-70
2021/05/19 03:42:33;;;;;;;33.97;17.73;;;;;;;;;;4419747;32;20480;-69
2021/05/19 03:44:58;;;;;;;34.40;17.83;;;;;;;;;;4436275;32;20160;-71
2021/05/19 03:47:23;;;;;;;34.93;17.23;;;;;;;;;;4434542;32;20194;-71
2021/05/19 03:49:49;;;;;;;38.37;18.63;;;;;;;;;;4436564;32;20259;-71
2021/05/19 03:52:15;;;;;;;32.10;17.40;;;;;;;;;;4420323;32;20219;-71
2021/05/19 03:54:40;;;;;;;35.93;17.23;;;;;;;;;;4417697;32;20598;-71
2021/05/19 03:57:06;;;;;;;34.20;17.53;;;;;;;;;;4419719;32;20129;-71
2021/05/19 03:59:32;;;;;;;31.57;16.43;;;;;;;;;;4419798;32;20232;-70
2021/05/19 04:01:57;;;;;;;29.47;16.37;;;;;;;;;;4417810;32;20186;-71
2021/05/19 04:04:22;;;;;;;27.77;15.35;;;;;;;;;;4420749;32;20130;-70
2021/05/19 04:06:47;;;;;;;31.17;17.60;;;;;;;;;;4419446;32;20134;-69
2021/05/19 04:09:12;;;;;;;30.50;14.97;;;;;;;;;;4420471;32;20157;-69
2021/05/19 04:11:38;;;;;;;29.87;15.10;;;;;;;;;;4420172;32;20149;-70
2021/05/19 04:14:03;;;;;;;27.47;14.87;;;;;;;;;;4419418;32;20280;-70
2021/05/19 04:16:28;;;;;;;23.85;14.80;;;;;;;;;;4417601;32;20503;-70
2021/05/19 04:18:53;;;;;;;26.58;13.00;;;;;;;;;;4418955;32;20495;-71
2021/05/19 04:21:19;;;;;;;25.53;14.13;;;;;;;;;;4419366;32;20179;-70
2021/05/19 04:23:44;;;;;;;24.98;11.85;;;;;;;;;;4420445;32;20192;-70
2021/05/19 04:26:09;;;;;;;23.33;12.95;;;;;;;;;;4418300;32;20161;-69
2021/05/19 04:28:35;;;;;;;26.63;12.57;;;;;;;;;;4420649;32;20335;-68
2021/05/19 04:31:00;;;;;;;29.05;11.63;;;;;;;;;;4421855;32;20273;-70
2021/05/19 04:33:25;;;;;;;25.73;11.30;;;;;;;;;;4421191;32;20133;-74
2021/05/19 04:35:50;;;;;;;32.87;12.70;;;;;;;;;;4419667;32;20229;-73
2021/05/19 04:38:16;;;;;;;26.27;12.20;;;;;;;;;;4420322;32;20188;-74
2021/05/19 04:40:41;;;;;;;27.83;13.57;;;;;;;;;;4419716;32;20134;-73
2021/05/19 04:43:09;;;;;;;31.33;12.93;;;;;;;;;;4419100;32;20526;-73
2021/05/19 04:45:34;;;;;;;31.77;12.05;;;;;;;;;;4418206;32;20228;-73
2021/05/19 04:48:00;;;;;;;36.45;14.70;;;;;;;;;;4419221;32;20199;-74
2021/05/19 04:50:25;;;;;;;29.17;13.20;;;;;;;;;;4419258;32;20169;-73
2021/05/19 04:52:50;;;;;;;28.02;11.77;;;;;;;;;;4420060;32;20172;-73
2021/05/19 04:55:16;;;;;;;37.83;14.47;;;;;;;;;;4421783;32;20184;-73
2021/05/19 04:57:41;;;;;;;29.90;14.60;;;;;;;;;;4445992;32;20137;-73
2021/05/19 05:00:07;;;;;;;38.60;12.70;;;;;;;;;;4437964;32;20248;-73
2021/05/19 05:02:32;;;;;;;33.10;14.05;;;;;;;;;;4438608;32;20157;-73
2021/05/19 05:04:57;;;;;;;35.95;13.88;;;;;;;;;;4448986;32;20160;-72
2021/05/19 05:07:23;;;;;;;24.90;13.43;;;;;;;;;;4437286;32;20161;-72
2021/05/19 05:09:48;;;;;;;26.50;13.17;;;;;;;;;;4436673;32;20168;-73
2021/05/19 05:12:15;;;;;;;26.98;12.27;;;;;;;;;;4450410;32;20163;-72
2021/05/19 05:14:40;;;;;;;33.00;13.37;;;;;;;;;;4423057;32;20692;-74
2021/05/19 05:17:05;;;;;;;31.60;14.57;;;;;;;;;;4419799;32;20197;-74
2021/05/19 05:19:30;;;;;;;37.17;16.12;;;;;;;;;;4421793;32;20304;-71
2021/05/19 05:21:55;;;;;;;45.58;17.17;;;;;;;;;;4436081;32;20272;-73
2021/05/19 05:24:21;;;;;;;39.75;15.25;;;;;;;;;;4434678;32;20597;-73
2021/05/19 05:26:46;;;;;;;38.03;17.27;;;;;;;;;;4434587;32;20627;-72
2021/05/19 05:29:11;;;;;;;35.25;17.02;;;;;;;;;;4419880;32;20230;-72
2021/05/19 05:31:36;;;;;;;34.03;16.47;;;;;;;;;;4420426;32;20614;-73
2021/05/19 05:34:01;;;;;;;43.95;19.10;;;;;;;;;;4420390;32;20261;-70
2021/05/19 05:36:26;;;;;;;43.28;20.50;;;;;;;;;;4434699;32;20510;-71
2021/05/19 05:38:52;;;;;;;43.50;20.37;;;;;;;;;;4406069;32;20173;-71
2021/05/19 05:41:17;;;;;;;47.70;21.12;;;;;;;;;;4419824;32;20130;-71
2021/05/19 05:43:42;;;;;;;48.75;21.62;;;;;;;;;;4405741;32;20461;-70
2021/05/19 05:46:07;;;;;;;55.00;22.05;;;;;;;;;;4421294;32;20239;-69
2021/05/19 05:48:32;;;;;;;47.95;22.13;;;;;;;;;;4435190;32;20149;-69
2021/05/19 05:50:59;;;;;;;53.20;23.10;;;;;;;;;;4433655;32;20277;-69
2021/05/19 05:53:24;;;;;;;56.80;25.52;;;;;;;;;;4419835;32;20172;-69
2021/05/19 05:55:50;;;;;;;56.72;23.83;;;;;;;;;;4429061;32;20168;-69
2021/05/19 05:58:15;;;;;;;62.75;25.42;;;;;;;;;;4433616;32;20307;-69
2021/05/19 06:00:40;;;;;;;53.00;22.37;;;;;;;;;;4433931;32;20172;-68
2021/05/19 06:03:07;;;;;;;52.15;24.00;;;;;;;;;;4418051;32;20172;-68
2021/05/19 06:05:33;;;;;;;65.35;26.77;;;;;;;;;;4417818;32;20322;-68
2021/05/19 06:08:01;;;;;;;55.17;25.17;;;;;;;;;;4432287;32;20186;-69
2021/05/19 06:10:26;;;;;;;62.45;26.35;;;;;;;;;;4431796;32;20149;-67
2021/05/19 06:12:51;;;;;;;56.53;25.58;;;;;;;;;;4432801;32;20145;-69
2021/05/19 06:15:16;;;;;;;60.85;25.75;;;;;;;;;;4431264;32;20522;-69
2021/05/19 06:17:41;;;;;;;50.70;22.48;;;;;;;;;;4431231;32;20268;-69
2021/05/19 06:20:07;;;;;;;54.15;23.08;;;;;;;;;;4410852;32;20550;-69
2021/05/19 06:22:32;;;;;;;53.17;26.45;;;;;;;;;;4416797;32;20156;-68
2021/05/19 06:24:57;;;;;;;47.33;24.63;;;;;;;;;;4416474;32;20130;-69
2021/05/19 06:27:22;;;;;;;47.83;23.95;;;;;;;;;;4404319;32;20680;-68
2021/05/19 06:29:48;;;;;;;43.95;23.67;;;;;;;;;;4416093;32;20134;-68
2021/05/19 06:32:13;;;;;;;42.40;23.38;;;;;;;;;;4416018;32;20172;-68
2021/05/19 06:34:38;;;;;;;49.63;23.15;;;;;;;;;;4410636;32;20161;-68
2021/05/19 06:37:04;;;;;;;47.20;23.58;;;;;;;;;;4419452;32;20218;-69
2021/05/19 06:39:29;;;;;;;40.30;23.08;;;;;;;;;;4431925;32;20130;-69
2021/05/19 06:41:55;;;;;;;49.88;24.87;;;;;;;;;;4434677;32;20188;-69
2021/05/19 06:44:20;;;;;;;45.10;23.30;;;;;;;;;;4435267;32;20148;-69
2021/05/19 06:46:45;;;;;;;39.80;21.48;;;;;;;;;;4435600;32;20125;-68
2021/05/19 06:49:11;;;;;;;39.00;24.65;;;;;;;;;;4435588;32;20142;-68
2021/05/19 06:51:36;;;;;;;40.58;22.05;;;;;;;;;;4435575;32;20194;-69
2021/05/19 06:54:01;;;;;;;38.58;20.58;;;;;;;;;;4434416;32;20156;-70
2021/05/19 06:56:27;;;;;;;41.08;23.67;;;;;;;;;;4434759;32;20507;-68
2021/05/19 06:58:53;;;;;;;42.38;20.98;;;;;;;;;;4435963;32;20133;-68
2021/05/19 07:01:18;;;;;;;40.60;21.40;;;;;;;;;;4422328;32;20333;-69
2021/05/19 07:03:43;;;;;;;41.30;22.55;;;;;;;;;;4434316;32;20179;-68
2021/05/19 07:06:09;;;;;;;36.67;19.67;;;;;;;;;;4436260;32;20129;-69
2021/05/19 07:08:34;;;;;;;30.62;17.85;;;;;;;;;;4421733;32;20191;-68
2021/05/19 07:10:59;;;;;;;31.00;18.23;;;;;;;;;;4422333;32;20165;-69
2021/05/19 07:13:27;;;;;;;36.75;18.05;;;;;;;;;;4435976;32;20229;-68
2021/05/19 07:15:53;;;;;;;36.45;21.27;;;;;;;;;;4436656;32;20173;-69
2021/05/19 07:18:19;;;;;;;38.85;20.58;;;;;;;;;;4435493;32;20176;-68
2021/05/19 07:20:44;;;;;;;39.22;21.58;;;;;;;;;;4435440;32;20195;-69
2021/05/19 07:23:09;;;;;;;30.25;16.58;;;;;;;;;;4436661;32;20129;-68
2021/05/19 07:25:34;;;;;;;31.83;16.58;;;;;;;;;;4436978;32;20296;-68
2021/05/19 07:28:01;;;;;;;27.27;16.67;;;;;;;;;;4436862;32;20279;-68
2021/05/19 07:30:26;;;;;;;26.90;15.43;;;;;;;;;;4434727;32;20316;-68
2021/05/19 07:32:52;;;;;;;26.58;15.82;;;;;;;;;;4436893;32;20609;-68
2021/05/19 07:35:17;;;;;;;24.35;14.93;;;;;;;;;;4436463;32;20157;-67
2021/05/19 07:37:42;;;;;;;23.65;14.98;;;;;;;;;;4421479;32;20184;-67
2021/05/19 07:40:07;;;;;;;22.83;14.25;;;;;;;;;;4436526;32;20144;-67
2021/05/19 07:42:33;;;;;;;28.40;16.77;;;;;;;;;;4422003;32;20166;-69
2021/05/19 07:44:58;;;;;;;25.87;15.57;;;;;;;;;;4436792;32;20133;-67
2021/05/19 07:47:24;;;;;;;31.83;16.87;;;;;;;;;;4413986;32;20264;-67
2021/05/19 07:49:51;;;;;;;21.35;15.10;;;;;;;;;;4435124;32;20144;-68
2021/05/19 07:52:16;;;;;;;27.62;15.00;;;;;;;;;;4433727;32;20486;-68
2021/05/19 07:54:42;;;;;;;24.00;15.73;;;;;;;;;;4420295;32;20165;-68
2021/05/19 07:57:13;;;;;;;27.98;14.30;;;;;;;;;;4436787;32;20134;-68
2021/05/19 07:59:38;;;;;;;30.58;17.73;;;;;;;;;;4435931;32;20213;-68
2021/05/19 08:02:08;;;;;;;30.33;18.30;;;;;;;;;;4422775;32;20500;-68
2021/05/19 08:04:34;;;;;;;37.20;18.80;;;;;;;;;;4436776;32;20130;-70
2021/05/19 08:07:00;;;;;;;36.97;17.80;;;;;;;;;;4436292;32;20137;-70
2021/05/19 08:09:25;;;;;;;31.60;16.52;;;;;;;;;;4431965;32;20598;-68
2021/05/19 08:11:50;;;;;;;36.42;18.33;;;;;;;;;;4432088;32;20197;-68
2021/05/19 08:14:16;;;;;;;23.02;13.18;;;;;;;;;;4430954;32;20296;-67
2021/05/19 08:16:41;;;;;;;26.17;15.25;;;;;;;;;;4435773;32;20240;-68
2021/05/19 08:19:07;;;;;;;27.73;14.18;;;;;;;;;;4435969;32;20139;-68
2021/05/19 08:21:32;;;;;;;34.53;15.32;;;;;;;;;;4436410;32;20229;-68
2021/05/19 08:23:57;;;;;;;26.33;12.73;;;;;;;;;;4436226;32;20504;-68
2021/05/19 08:26:22;;;;;;;34.15;15.68;;;;;;;;;;4426982;32;20146;-68
2021/05/19 08:28:49;;;;;;;35.60;18.12;;;;;;;;;;4420019;32;20264;-67
2021/05/19 08:31:15;;;;;;;34.22;17.08;;;;;;;;;;4419516;32;20141;-69
2021/05/19 08:33:41;;;;;;;15.13;7.95;;;;;;;;;;4425939;32;20176;-66
2021/05/19 08:36:06;;;;;;;10.15;4.53;;;;;;;;;;4420586;32;20165;-67
2021/05/19 08:38:34;;;;;;;10.60;3.83;;;;;;;;;;4435587;32;20157;-68
2021/05/19 08:41:03;;;;;;;6.72;3.80;;;;;;;;;;4419483;32;20195;-69
2021/05/19 08:43:28;;;;;;;12.43;4.60;;;;;;;;;;4417936;32;20229;-67
2021/05/19 08:45:53;;;;;;;9.05;4.20;;;;;;;;;;4435581;32;20164;-67
2021/05/19 08:48:19;;;;;;;9.30;4.80;;;;;;;;;;4417784;32;20261;-67
2021/05/19 08:50:44;;;;;;;8.73;4.80;;;;;;;;;;4421319;32;20381;-67
2021/05/19 08:53:09;;;;;;;8.50;4.97;;;;;;;;;;4426025;32;20235;-67
2021/05/19 08:55:35;;;;;;;12.27;5.20;;;;;;;;;;4426941;32;20211;-67
2021/05/19 08:58:00;;;;;;;12.33;5.10;;;;;;;;;;4423284;32;20177;-69
2021/05/19 09:00:26;;;;;;;12.85;5.22;;;;;;;;;;4432972;32;20149;-68
2021/05/19 09:03:11;;;;;;;5.77;3.27;;;;;;;;;;4432654;32;20168;-68
2021/05/19 09:05:37;;;;;;;8.85;3.72;;;;;;;;;;4427581;32;20298;-68
2021/05/19 09:08:03;;;;;;;9.03;3.70;;;;;;;;;;4420801;32;20559;-68
2021/05/19 09:10:28;;;;;;;8.07;3.80;;;;;;;;;;4419187;32;20138;-68
2021/05/19 09:12:54;;;;;;;8.40;4.80;;;;;;;;;;4417488;32;20214;-68
2021/05/19 09:15:19;;;;;;;7.78;4.30;;;;;;;;;;4419155;32;20141;-69
2021/05/19 09:17:44;;;;;;;9.75;4.25;;;;;;;;;;4419225;32;20261;-68
2021/05/19 09:20:14;;;;;;;7.70;3.87;;;;;;;;;;4429567;32;20248;-68
2021/05/19 09:22:40;;;;;;;8.65;4.78;;;;;;;;;;4406757;32;20214;-69
2021/05/19 09:25:22;;;;;;;7.15;3.97;;;;;;;;;;4416627;32;20196;-68
2021/05/19 09:27:48;;;;;;;8.18;3.85;;;;;;;;;;4416207;32;20134;-68
2021/05/19 09:30:14;;;;;;;8.10;4.55;;;;;;;;;;4423613;32;20582;-68
2021/05/19 09:32:41;;;;;;;4.78;3.37;;;;;;;;;;4430150;32;20221;-68
2021/05/19 09:35:07;;;;;;;6.72;4.03;;;;;;;;;;4433847;32;20230;-68
2021/05/19 09:37:33;;;;;;;8.18;3.50;;;;;;;;;;4433802;32;20148;-69
2021/05/19 09:40:09;;;;;;;6.57;3.62;;;;;;;;;;4423915;32;20186;-67
2021/05/19 09:42:37;;;;;;;8.32;3.75;;;;;;;;;;4410058;32;20173;-68
2021/05/19 09:45:15;;;;;;;11.35;3.80;;;;;;;;;;4419160;32;20172;-69
2021/05/19 09:47:41;;;;;;;7.37;3.20;;;;;;;;;;4421185;32;20153;-69
2021/05/19 09:50:07;;;;;;;8.15;2.92;;;;;;;;;;4422141;32;20161;-68
2021/05/19 09:52:33;;;;;;;4.37;2.72;;;;;;;;;;4426415;32;20287;-69
2021/05/19 09:55:03;;;;;;;4.00;1.40;;;;;;;;;;4431016;32;20574;-68
2021/05/19 09:57:39;;;;;;;1.73;1.00;;;;;;;;;;4417364;32;20564;-68
2021/05/19 10:00:05;;;;;;;3.33;1.27;;;;;;;;;;4402745;32;20196;-69
2021/05/19 10:02:33;;;;;;;0.85;0.80;;;;;;;;;;4417541;32;20202;-69
2021/05/19 10:05:06;;;;;;;2.45;0.95;;;;;;;;;;4405492;32;20184;-68
2021/05/19 10:07:31;;;;;;;1.80;0.75;;;;;;;;;;4432447;32;20233;-70
2021/05/19 10:09:56;;;;;;;1.60;0.60;;;;;;;;;;4431369;32;20460;-69
2021/05/19 10:12:21;;;;;;;1.20;0.70;;;;;;;;;;4433532;32;20301;-68
2021/05/19 10:14:47;;;;;;;1.80;0.65;;;;;;;;;;4432403;32;20240;-68
2021/05/19 10:17:13;;;;;;;2.05;0.90;;;;;;;;;;4429515;32;20205;-69
2021/05/19 10:19:59;;;;;;;3.35;1.20;;;;;;;;;;4417945;32;20169;-68
2021/05/19 10:22:25;;;;;;;1.58;1.05;;;;;;;;;;4417285;32;20169;-69
2021/05/19 10:25:18;;;;;;;4.03;1.40;;;;;;;;;;4416706;32;20133;-68
2021/05/19 10:27:50;;;;;;;7.10;1.50;;;;;;;;;;4417565;32;20130;-68
2021/05/19 10:30:31;;;;;;;2.95;1.40;;;;;;;;;;4417767;32;20181;-68
2021/05/19 10:32:57;;;;;;;3.15;1.48;;;;;;;;;;4424020;32;20220;-68
2021/05/19 10:35:29;;;;;;;3.25;1.60;;;;;;;;;;4432759;32;20565;-67
2021/05/19 10:37:56;;;;;;;2.42;1.80;;;;;;;;;;4432884;32;20217;-66
2021/05/19 10:40:21;;;;;;;4.12;1.92;;;;;;;;;;4419209;32;20631;-66
2021/05/19 10:42:54;;;;;;;4.70;2.30;;;;;;;;;;4416177;32;20137;-66
2021/05/19 10:45:19;;;;;;;5.20;2.25;;;;;;;;;;4406407;32;20192;-66
2021/05/19 10:47:45;;;;;;;3.22;1.77;;;;;;;;;;4430654;32;20157;-67
2021/05/19 10:50:28;;;;;;;3.28;1.65;;;;;;;;;;4420570;32;20157;-68
2021/05/19 11:01:05;;;;;;;4.22;1.73;;;;;;;;;;4429065;32;20164;-69
2021/05/19 11:03:30;;;;;;;4.50;1.58;;;;;;;;;;4431064;32;20469;-68
2021/05/19 11:05:56;;;;;;;2.12;1.45;;;;;;;;;;4421901;32;20154;-68
2021/05/19 11:08:22;;;;;;;3.10;1.40;;;;;;;;;;4416109;32;20142;-69
2021/05/19 11:10:49;;;;;;;4.40;1.67;;;;;;;;;;4416714;32;20130;-68
2021/05/19 11:13:18;;;;;;;4.65;1.77;;;;;;;;;;4416746;32;20141;-67
2021/05/19 11:15:56;;;;;;;5.18;1.73;;;;;;;;;;4428587;32;20138;-68
2021/05/19 11:20:54;;;;;;;2.45;1.37;;;;;;;;;;4416758;32;20168;-68
2021/05/19 11:23:19;;;;;;;2.45;1.27;;;;;;;;;;4404422;32;20165;-68
2021/05/19 11:25:45;;;;;;;6.10;1.70;;;;;;;;;;4404016;32;20169;-69
2021/05/19 11:28:10;;;;;;;3.92;1.67;;;;;;;;;;4419540;32;20154;-68
2021/05/19 11:30:36;;;;;;;2.67;1.40;;;;;;;;;;4405337;32;20224;-67
2021/05/19 11:33:09;;;;;;;4.87;1.67;;;;;;;;;;4420706;32;20187;-68
2021/05/19 11:35:34;;;;;;;2.03;1.27;;;;;;;;;;4428889;32;20260;-68
2021/05/19 11:38:00;;;;;;;2.87;1.35;;;;;;;;;;4434707;32;20141;-68
2021/05/19 11:40:39;;;;;;;3.25;0.90;;;;;;;;;;4419144;32;20219;-68
2021/05/19 11:43:04;;;;;;;3.35;1.10;;;;;;;;;;4435831;32;20149;-68
2021/05/19 11:45:29;;;;;;;1.98;1.20;;;;;;;;;;4434258;32;20453;-68
2021/05/19 11:47:54;;;;;;;1.45;1.00;;;;;;;;;;4435898;32;20169;-69
2021/05/19 11:50:23;;;;;;;3.60;0.87;;;;;;;;;;4434342;32;20149;-68
2021/05/19 11:52:50;;;;;;;1.40;0.85;;;;;;;;;;4432331;32;20241;-67
2021/05/19 11:55:23;;;;;;;1.83;0.80;;;;;;;;;;4405652;32;20189;-67
2021/05/19 11:57:48;;;;;;;1.23;0.60;;;;;;;;;;4420916;32;20158;-68
2021/05/19 12:00:13;;;;;;;1.12;0.62;;;;;;;;;;4428552;32;20157;-68
2021/05/19 12:02:59;;;;;;;2.25;0.50;;;;;;;;;;4435799;32;20145;-68
2021/05/19 12:05:24;;;;;;;1.65;0.70;;;;;;;;;;4432712;32;20173;-69
2021/05/19 12:07:50;;;;;;;1.30;0.70;;;;;;;;;;4435390;32;20191;-68
2021/05/19 12:10:15;;;;;;;5.00;1.20;;;;;;;;;;4434941;32;20621;-68
2021/05/19 12:12:41;;;;;;;2.08;0.50;;;;;;;;;;4420747;32;20149;-68
2021/05/19 12:15:06;;;;;;;1.25;0.62;;;;;;;;;;4419773;32;20191;-68
2021/05/19 12:17:31;;;;;;;1.25;0.68;;;;;;;;;;4417695;32;20173;-69
2021/05/19 12:19:57;;;;;;;1.87;0.80;;;;;;;;;;4405591;32;20161;-69
2021/05/19 12:22:23;;;;;;;3.55;1.00;;;;;;;;;;4433157;32;20156;-68
2021/05/19 12:24:49;;;;;;;5.00;1.10;;;;;;;;;;4434646;32;20703;-70
2021/05/19 12:27:15;;;;;;;3.25;1.10;;;;;;;;;;4409798;32;20192;-69
2021/05/19 12:29:48;;;;;;;1.95;1.00;;;;;;;;;;4407234;32;20241;-69
2021/05/19 12:32:13;;;;;;;1.08;0.60;;;;;;;;;;4431130;32;20196;-69
2021/05/19 12:34:39;;;;;;;0.77;0.50;;;;;;;;;;4405887;32;20598;-69
2021/05/19 12:37:04;;;;;;;2.90;0.80;;;;;;;;;;4410707;32;20177;-69
2021/05/19 12:39:30;;;;;;;2.40;0.75;;;;;;;;;;4420320;32;20546;-68
2021/05/19 12:41:57;;;;;;;3.62;1.00;;;;;;;;;;4427887;32;20238;-69
2021/05/19 12:44:31;;;;;;;1.25;0.75;;;;;;;;;;4419127;32;20517;-68
2021/05/19 12:47:01;;;;;;;2.50;0.88;;;;;;;;;;4415685;32;20224;-70
2021/05/19 12:49:27;;;;;;;4.22;0.70;;;;;;;;;;4406767;32;20656;-68
2021/05/19 12:51:58;;;;;;;2.72;0.90;;;;;;;;;;4430320;32;20215;-68
2021/05/19 12:54:28;;;;;;;4.12;0.80;;;;;;;;;;4408253;32;20168;-68
2021/05/19 12:56:59;;;;;;;2.70;0.90;;;;;;;;;;4435150;32;20214;-68
2021/05/19 12:59:25;;;;;;;4.10;1.17;;;;;;;;;;4432513;32;20197;-69
2021/05/19 13:01:51;;;;;;;1.70;1.05;;;;;;;;;;4426218;32;20206;-69
2021/05/19 13:04:20;;;;;;;2.87;1.10;;;;;;;;;;4427574;32;20217;-70
2021/05/19 13:06:50;;;;;;;2.87;1.30;;;;;;;;;;4406803;32;20169;-69
2021/05/19 13:09:19;;;;;;;5.07;2.15;;;;;;;;;;4411545;32;20165;-69
2021/05/19 13:12:18;;;;;;;5.87;2.17;;;;;;;;;;4427152;32;20180;-68
2021/05/19 13:14:37;;;;;;;5.82;2.47;;;;;;;;;;4431561;32;20161;-68
2021/05/19 13:17:07;;;;;;;4.00;2.70;;;;;;;;;;4414283;32;20200;-69
2021/05/19 13:19:33;;;;;;;4.32;2.75;;;;;;;;;;4419793;32;20574;-68
2021/05/19 13:21:58;;;;;;;4.62;2.75;;;;;;;;;;4418676;32;20175;-68
2021/05/19 13:24:24;;;;;;;7.28;3.03;;;;;;;;;;4419261;32;20126;-68
2021/05/19 13:26:57;;;;;;;7.20;3.10;;;;;;;;;;4419646;32;20168;-69
2021/05/19 13:29:23;;;;;;;5.47;2.80;;;;;;;;;;4404358;32;20208;-69
2021/05/19 13:32:14;;;;;;;3.53;2.30;;;;;;;;;;4417593;32;20197;-68
2021/05/19 13:36:12;;;;;;;4.68;2.10;;;;;;;;;;4427393;32;20145;-69
2021/05/19 13:37:27;;;;;;;6.57;1.83;;;;;;;;;;4419649;32;20441;-69
2021/05/19 13:39:53;;;;;;;3.05;1.70;;;;;;;;;;4406152;32;20597;-68
2021/05/19 13:42:19;;;;;;;4.32;2.10;;;;;;;;;;4425837;32;20172;-69
2021/05/19 13:44:45;;;;;;;5.00;1.80;;;;;;;;;;4418202;32;20211;-69
2021/05/19 13:47:10;;;;;;;2.60;1.35;;;;;;;;;;4435743;32;20125;-67
2021/05/19 13:49:38;;;;;;;2.93;1.47;;;;;;;;;;4418746;32;20640;-69
2021/05/19 13:52:05;;;;;;;3.30;1.60;;;;;;;;;;4434551;32;20297;-69
2021/05/19 13:54:38;;;;;;;4.57;1.73;;;;;;;;;;4408912;32;20245;-68
2021/05/19 13:57:04;;;;;;;3.85;1.50;;;;;;;;;;4405531;32;20154;-68
2021/05/19 13:59:29;;;;;;;2.37;1.40;;;;;;;;;;4423345;32;20165;-68
2021/05/19 14:01:54;;;;;;;7.70;4.10;;;;;;;;;;4411746;32;20516;-72
2021/05/19 14:04:19;;;;;;;2.83;1.58;;;;;;;;;;4429964;32;20253;-69
2021/05/19 14:06:45;;;;;;;3.60;1.50;;;;;;;;;;4435286;32;20184;-68
2021/05/19 14:09:10;;;;;;;3.78;1.73;;;;;;;;;;4434293;32;20744;-70
2021/05/19 14:11:43;;;;;;;2.22;1.25;;;;;;;;;;4434999;32;20168;-70
2021/05/19 14:14:26;;;;;;;4.53;1.70;;;;;;;;;;4422624;32;20202;-70
2021/05/19 14:17:01;;;;;;;3.65;1.58;;;;;;;;;;4435170;32;20160;-69
2021/05/19 14:27:23;;;;;;;5.18;2.20;;;;;;;;;;4420961;32;20217;-68
2021/05/19 14:29:51;;;;;;;8.98;2.25;;;;;;;;;;4423012;32;20554;-69
2021/05/19 14:32:16;;;;;;;4.53;2.20;;;;;;;;;;4405039;32;20691;-68
2021/05/19 14:34:43;;;;;;;5.45;2.65;;;;;;;;;;4430069;32;20201;-69
2021/05/19 14:37:22;;;;;;;3.45;1.90;;;;;;;;;;4420134;32;20142;-70
2021/05/19 15:01:14;;;;;;;2.75;2.40;;;;;;;;;;4429877;32;20188;-70
2021/05/19 15:03:39;;;;;;;3.72;2.60;;;;;;;;;;4430154;32;20497;-70
2021/05/19 15:06:05;;;;;;;3.45;2.78;;;;;;;;;;4421140;32;20198;-69